sensor_id;sensor_type;location;lat;lon;timestamp;temperature;humidity
15967;DHT22;15175;48.154;11.534;2022-12-05T00:00:27;3.40;99.90
15967;DHT22;15175;48.154;11.534;2022-12-05T00:02:54;3.40;99.90
15967;DHT22;15175;48.154;11.534;2022-12-05T00:05:22;3.40;99.90
15967;DHT22;15175;48.154;11.534;2022-12-05T00:07:49;3.50;99.90
15967;DHT22;15175;48.154;11.534;2022-12-05T00:10:16;3.50;99.90
15967;DHT22;15175;48.154;11.534;2022-12-05T00:12:43;3.50;99.90
15967;DHT22;15175;48.154;11.534;2022-12-05T00:15:11;3.50;99.90
15967;DHT22;15175;48.154;11.534;2022-12-05T00:17:39;3.50;99.90
15967;DHT22;15175;48.154;11.534;2022-12-05T00:20:07;3.50;99.90
15967;DHT22;15175;48.154;11.534;2022-12-05T00:22:35;3.50;99.90
15967;DHT22;15175;48.154;11.534;2022-12-05T00:25:05;3.50;99.90
15967;DHT22;15175;48.154;11.534;2022-12-05T00:27:32;3.40;99.90
15967;DHT22;15175;48.154;11.534;2022-12-05T00:29:59;3.40;99.90
15967;DHT22;15175;48.154;11.534;2022-12-05T00:32:29;3.40;99.90
15967;DHT22;15175;48.154;11.534;2022-12-05T00:34:56;3.40;99.90
15967;DHT22;15175;48.154;11.534;2022-12-05T00:37:23;3.40;99.90
15967;DHT22;15175;48.154;11.534;2022-12-05T00:39:50;3.40;99.90
15967;DHT22;15175;48.154;11.534;2022-12-05T00:42:17;3.40;99.90
15967;DHT22;15175;48.154;11.534;2022-12-05T00:44:44;3.40;99.90
15967;DHT22;15175;48.154;11.534;2022-12-05T00:47:11;3.50;99.90
15967;DHT22;15175;48.154;11.534;2022-12-05T00:49:40;3.40;99.90
15967;DHT22;15175;48.154;11.534;2022-12-05T00:52:07;3.50;99.90
15967;DHT22;15175;48.154;11.534;2022-12-05T00:54:34;3.40;99.90
15967;DHT22;15175;48.154;11.534;2022-12-05T00:57:01;3.40;99.90
15967;DHT22;15175;48.154;11.534;2022-12-05T00:59:28;3.40;99.90
15967;DHT22;15175;48.154;11.534;2022-12-05T01:01:55;3.40;99.90
15967;DHT22;15175;48.154;11.534;2022-12-05T01:04:23;3.40;99.90
15967;DHT22;15175;48.154;11.534;2022-12-05T01:06:55;3.40;99.90
15967;DHT22;15175;48.154;11.534;2022-12-05T01:09:23;3.40;99.90
15967;DHT22;15175;48.154;11.534;2022-12-05T01:11:51;3.40;99.90
15967;DHT22;15175;48.154;11.534;2022-12-05T01:14:23;3.40;99.90
15967;DHT22;15175;48.154;11.534;2022-12-05T01:16:53;3.40;99.90
15967;DHT22;15175;48.154;11.534;2022-12-05T01:19:21;3.40;99.90
15967;DHT22;15175;48.154;11.534;2022-12-05T01:21:49;3.40;99.90
15967;DHT22;15175;48.154;11.534;2022-12-05T01:24:19;3.50;99.90
15967;DHT22;15175;48.154;11.534;2022-12-05T01:26:47;3.40;99.90
15967;DHT22;15175;48.154;11.534;2022-12-05T01:29:16;3.40;99.90
15967;DHT22;15175;48.154;11.534;2022-12-05T01:31:43;3.40;99.90
15967;DHT22;15175;48.154;11.534;2022-12-05T01:34:12;3.40;99.90
15967;DHT22;15175;48.154;11.534;2022-12-05T01:36:40;3.40;99.90
15967;DHT22;15175;48.154;11.534;2022-12-05T01:39:08;3.40;99.90
15967;DHT22;15175;48.154;11.534;2022-12-05T01:41:39;3.40;99.90
15967;DHT22;15175;48.154;11.534;2022-12-05T01:46:50;3.40;99.90
15967;DHT22;15175;48.154;11.534;2022-12-05T01:49:21;3.50;99.90
15967;DHT22;15175;48.154;11.534;2022-12-05T01:51:52;3.40;99.90
15967;DHT22;15175;48.154;11.534;2022-12-05T01:54:21;3.40;99.90
15967;DHT22;15175;48.154;11.534;2022-12-05T01:56:54;3.40;99.90
15967;DHT22;15175;48.154;11.534;2022-12-05T01:59:22;3.40;99.90
15967;DHT22;15175;48.154;11.534;2022-12-05T02:01:51;3.40;99.90
15967;DHT22;15175;48.154;11.534;2022-12-05T02:04:18;3.40;99.90
15967;DHT22;15175;48.154;11.534;2022-12-05T02:06:45;3.40;99.90
15967;DHT22;15175;48.154;11.534;2022-12-05T02:09:12;3.40;99.90
15967;DHT22;15175;48.154;11.534;2022-12-05T02:11:46;3.40;99.90
15967;DHT22;15175;48.154;11.534;2022-12-05T02:14:25;3.40;99.90
15967;DHT22;15175;48.154;11.534;2022-12-05T02:16:59;3.40;99.90
15967;DHT22;15175;48.154;11.534;2022-12-05T02:19:53;3.30;99.90
15967;DHT22;15175;48.154;11.534;2022-12-05T02:25:45;3.30;99.90
15967;DHT22;15175;48.154;11.534;2022-12-05T02:28:33;3.20;99.90
15967;DHT22;15175;48.154;11.534;2022-12-05T02:31:09;3.20;99.90
15967;DHT22;15175;48.154;11.534;2022-12-05T02:33:38;3.20;99.90
15967;DHT22;15175;48.154;11.534;2022-12-05T02:36:13;3.20;99.90
15967;DHT22;15175;48.154;11.534;2022-12-05T02:38:47;3.20;99.90
15967;DHT22;15175;48.154;11.534;2022-12-05T02:41:19;3.20;99.90
15967;DHT22;15175;48.154;11.534;2022-12-05T02:43:52;3.20;99.90
15967;DHT22;15175;48.154;11.534;2022-12-05T02:46:25;3.20;99.90
15967;DHT22;15175;48.154;11.534;2022-12-05T02:48:56;3.20;99.90
15967;DHT22;15175;48.154;11.534;2022-12-05T02:51:28;3.20;99.90
15967;DHT22;15175;48.154;11.534;2022-12-05T02:54:00;3.20;99.90
15967;DHT22;15175;48.154;11.534;2022-12-05T02:56:29;3.10;99.90
15967;DHT22;15175;48.154;11.534;2022-12-05T02:58:58;3.10;99.90
15967;DHT22;15175;48.154;11.534;2022-12-05T03:01:30;3.10;99.90
15967;DHT22;15175;48.154;11.534;2022-12-05T03:04:00;3.10;99.90
15967;DHT22;15175;48.154;11.534;2022-12-05T03:06:30;3.00;99.90
15967;DHT22;15175;48.154;11.534;2022-12-05T03:09:01;3.00;99.90
15967;DHT22;15175;48.154;11.534;2022-12-05T03:11:34;3.00;99.90
15967;DHT22;15175;48.154;11.534;2022-12-05T03:14:05;3.00;99.90
15967;DHT22;15175;48.154;11.534;2022-12-05T03:16:37;3.00;99.90
15967;DHT22;15175;48.154;11.534;2022-12-05T03:19:11;3.00;99.90
15967;DHT22;15175;48.154;11.534;2022-12-05T03:21:44;3.00;99.90
15967;DHT22;15175;48.154;11.534;2022-12-05T03:24:13;3.00;99.90
15967;DHT22;15175;48.154;11.534;2022-12-05T03:26:49;3.00;99.90
15967;DHT22;15175;48.154;11.534;2022-12-05T03:29:25;3.00;99.90
15967;DHT22;15175;48.154;11.534;2022-12-05T03:32:06;3.00;99.90
15967;DHT22;15175;48.154;11.534;2022-12-05T03:34:46;3.00;99.90
15967;DHT22;15175;48.154;11.534;2022-12-05T03:37:21;3.00;99.90
15967;DHT22;15175;48.154;11.534;2022-12-05T03:39:57;3.00;99.90
15967;DHT22;15175;48.154;11.534;2022-12-05T03:42:32;3.00;99.90
15967;DHT22;15175;48.154;11.534;2022-12-05T03:45:05;2.90;99.90
15967;DHT22;15175;48.154;11.534;2022-12-05T03:47:41;2.90;99.90
15967;DHT22;15175;48.154;11.534;2022-12-05T03:50:15;2.90;99.90
15967;DHT22;15175;48.154;11.534;2022-12-05T03:52:48;3.00;99.90
15967;DHT22;15175;48.154;11.534;2022-12-05T03:55:17;3.00;99.90
15967;DHT22;15175;48.154;11.534;2022-12-05T03:57:49;3.00;99.90
15967;DHT22;15175;48.154;11.534;2022-12-05T04:00:20;3.00;99.90
15967;DHT22;15175;48.154;11.534;2022-12-05T04:02:52;3.00;99.90
15967;DHT22;15175;48.154;11.534;2022-12-05T04:05:24;3.00;99.90
15967;DHT22;15175;48.154;11.534;2022-12-05T04:07:57;3.00;99.90
15967;DHT22;15175;48.154;11.534;2022-12-05T04:10:28;3.00;99.90
15967;DHT22;15175;48.154;11.534;2022-12-05T04:12:59;3.00;99.90
15967;DHT22;15175;48.154;11.534;2022-12-05T04:15:53;3.00;99.90
15967;DHT22;15175;48.154;11.534;2022-12-05T04:18:45;3.00;99.90
15967;DHT22;15175;48.154;11.534;2022-12-05T04:21:13;3.00;99.90
15967;DHT22;15175;48.154;11.534;2022-12-05T04:23:59;3.10;99.90
15967;DHT22;15175;48.154;11.534;2022-12-05T04:26:47;3.00;99.90
15967;DHT22;15175;48.154;11.534;2022-12-05T04:29:20;3.10;99.90
15967;DHT22;15175;48.154;11.534;2022-12-05T04:31:53;3.10;99.90
15967;DHT22;15175;48.154;11.534;2022-12-05T04:34:26;3.10;99.90
15967;DHT22;15175;48.154;11.534;2022-12-05T04:36:57;3.10;99.90
15967;DHT22;15175;48.154;11.534;2022-12-05T04:39:29;3.20;99.90
15967;DHT22;15175;48.154;11.534;2022-12-05T04:42:02;3.20;99.90
15967;DHT22;15175;48.154;11.534;2022-12-05T04:44:33;3.20;99.90
15967;DHT22;15175;48.154;11.534;2022-12-05T04:47:04;3.20;99.90
15967;DHT22;15175;48.154;11.534;2022-12-05T04:49:34;3.20;99.90
15967;DHT22;15175;48.154;11.534;2022-12-05T04:52:05;3.20;99.90
15967;DHT22;15175;48.154;11.534;2022-12-05T04:54:36;3.20;99.90
15967;DHT22;15175;48.154;11.534;2022-12-05T04:57:08;3.20;99.90
15967;DHT22;15175;48.154;11.534;2022-12-05T04:59:38;3.30;99.90
15967;DHT22;15175;48.154;11.534;2022-12-05T05:02:08;3.20;99.90
15967;DHT22;15175;48.154;11.534;2022-12-05T05:04:39;3.20;99.90
15967;DHT22;15175;48.154;11.534;2022-12-05T05:07:10;3.30;99.90
15967;DHT22;15175;48.154;11.534;2022-12-05T05:09:38;3.30;99.90
15967;DHT22;15175;48.154;11.534;2022-12-05T05:12:06;3.30;99.90
15967;DHT22;15175;48.154;11.534;2022-12-05T05:14:33;3.40;99.90
15967;DHT22;15175;48.154;11.534;2022-12-05T05:17:00;3.40;99.90
15967;DHT22;15175;48.154;11.534;2022-12-05T05:19:28;3.40;99.90
15967;DHT22;15175;48.154;11.534;2022-12-05T05:21:56;3.40;99.90
15967;DHT22;15175;48.154;11.534;2022-12-05T05:24:23;3.50;99.90
15967;DHT22;15175;48.154;11.534;2022-12-05T05:26:51;3.50;99.90
15967;DHT22;15175;48.154;11.534;2022-12-05T05:29:18;3.50;99.90
15967;DHT22;15175;48.154;11.534;2022-12-05T05:31:45;3.40;99.90
15967;DHT22;15175;48.154;11.534;2022-12-05T05:34:12;3.50;99.90
15967;DHT22;15175;48.154;11.534;2022-12-05T05:36:41;3.50;99.90
15967;DHT22;15175;48.154;11.534;2022-12-05T05:39:13;3.50;99.90
15967;DHT22;15175;48.154;11.534;2022-12-05T05:41:42;3.50;99.90
15967;DHT22;15175;48.154;11.534;2022-12-05T05:44:09;3.50;99.90
15967;DHT22;15175;48.154;11.534;2022-12-05T05:46:36;3.50;99.90
15967;DHT22;15175;48.154;11.534;2022-12-05T05:49:04;3.60;99.90
15967;DHT22;15175;48.154;11.534;2022-12-05T05:51:31;3.60;99.90
15967;DHT22;15175;48.154;11.534;2022-12-05T05:53:59;3.60;99.90
15967;DHT22;15175;48.154;11.534;2022-12-05T05:56:27;3.70;99.90
15967;DHT22;15175;48.154;11.534;2022-12-05T05:58:56;3.70;99.90
15967;DHT22;15175;48.154;11.534;2022-12-05T06:01:23;3.70;99.90
15967;DHT22;15175;48.154;11.534;2022-12-05T06:03:50;3.70;99.90
15967;DHT22;15175;48.154;11.534;2022-12-05T06:06:18;3.70;99.90
15967;DHT22;15175;48.154;11.534;2022-12-05T06:08:46;3.70;99.90
15967;DHT22;15175;48.154;11.534;2022-12-05T06:11:14;3.70;99.90
15967;DHT22;15175;48.154;11.534;2022-12-05T06:13:43;3.70;99.90
15967;DHT22;15175;48.154;11.534;2022-12-05T06:16:13;3.70;99.90
15967;DHT22;15175;48.154;11.534;2022-12-05T06:18:40;3.70;99.90
15967;DHT22;15175;48.154;11.534;2022-12-05T06:21:09;3.70;99.90
15967;DHT22;15175;48.154;11.534;2022-12-05T06:23:37;3.70;99.90
15967;DHT22;15175;48.154;11.534;2022-12-05T06:26:04;3.70;99.90
15967;DHT22;15175;48.154;11.534;2022-12-05T06:28:32;3.70;99.90
15967;DHT22;15175;48.154;11.534;2022-12-05T06:31:06;3.70;99.90
15967;DHT22;15175;48.154;11.534;2022-12-05T06:33:33;3.70;99.90
15967;DHT22;15175;48.154;11.534;2022-12-05T06:36:01;3.70;99.90
15967;DHT22;15175;48.154;11.534;2022-12-05T06:38:28;3.60;99.90
15967;DHT22;15175;48.154;11.534;2022-12-05T06:40:56;3.70;99.90
15967;DHT22;15175;48.154;11.534;2022-12-05T06:43:23;3.70;99.90
15967;DHT22;15175;48.154;11.534;2022-12-05T06:45:50;3.70;99.90
15967;DHT22;15175;48.154;11.534;2022-12-05T06:48:18;3.80;99.90
15967;DHT22;15175;48.154;11.534;2022-12-05T06:50:49;3.80;99.90
15967;DHT22;15175;48.154;11.534;2022-12-05T06:53:17;3.80;99.90
15967;DHT22;15175;48.154;11.534;2022-12-05T06:55:54;3.80;99.90
15967;DHT22;15175;48.154;11.534;2022-12-05T06:58:21;3.80;99.90
15967;DHT22;15175;48.154;11.534;2022-12-05T07:00:49;3.70;99.90
15967;DHT22;15175;48.154;11.534;2022-12-05T07:03:35;3.70;99.90
15967;DHT22;15175;48.154;11.534;2022-12-05T07:06:04;3.80;99.90
15967;DHT22;15175;48.154;11.534;2022-12-05T07:08:32;3.80;99.90
15967;DHT22;15175;48.154;11.534;2022-12-05T07:10:59;3.90;99.90
15967;DHT22;15175;48.154;11.534;2022-12-05T07:13:26;4.00;99.90
15967;DHT22;15175;48.154;11.534;2022-12-05T07:15:53;4.00;99.90
15967;DHT22;15175;48.154;11.534;2022-12-05T07:18:20;4.00;99.90
15967;DHT22;15175;48.154;11.534;2022-12-05T07:20:56;4.10;99.90
15967;DHT22;15175;48.154;11.534;2022-12-05T07:23:24;4.10;99.90
15967;DHT22;15175;48.154;11.534;2022-12-05T07:25:51;4.10;99.90
15967;DHT22;15175;48.154;11.534;2022-12-05T07:28:18;4.10;99.90
15967;DHT22;15175;48.154;11.534;2022-12-05T07:30:45;4.10;99.90
15967;DHT22;15175;48.154;11.534;2022-12-05T07:33:12;4.20;99.90
15967;DHT22;15175;48.154;11.534;2022-12-05T07:35:39;4.20;99.90
15967;DHT22;15175;48.154;11.534;2022-12-05T07:38:07;4.30;99.90
15967;DHT22;15175;48.154;11.534;2022-12-05T07:40:36;4.30;99.90
15967;DHT22;15175;48.154;11.534;2022-12-05T07:43:03;4.30;99.90
15967;DHT22;15175;48.154;11.534;2022-12-05T07:45:32;4.40;99.90
15967;DHT22;15175;48.154;11.534;2022-12-05T07:47:59;4.40;99.90
15967;DHT22;15175;48.154;11.534;2022-12-05T07:50:27;4.50;99.90
15967;DHT22;15175;48.154;11.534;2022-12-05T07:52:54;4.50;99.90
15967;DHT22;15175;48.154;11.534;2022-12-05T07:55:22;4.50;99.90
15967;DHT22;15175;48.154;11.534;2022-12-05T07:57:49;4.50;99.90
15967;DHT22;15175;48.154;11.534;2022-12-05T08:00:17;4.50;99.90
15967;DHT22;15175;48.154;11.534;2022-12-05T08:02:44;4.50;99.90
15967;DHT22;15175;48.154;11.534;2022-12-05T08:05:11;4.50;99.90
15967;DHT22;15175;48.154;11.534;2022-12-05T08:07:38;4.50;99.90
15967;DHT22;15175;48.154;11.534;2022-12-05T08:10:06;4.50;99.90
15967;DHT22;15175;48.154;11.534;2022-12-05T08:12:35;4.60;99.90
15967;DHT22;15175;48.154;11.534;2022-12-05T08:15:02;4.60;99.90
15967;DHT22;15175;48.154;11.534;2022-12-05T08:17:30;4.60;99.90
15967;DHT22;15175;48.154;11.534;2022-12-05T08:19:58;4.60;99.90
15967;DHT22;15175;48.154;11.534;2022-12-05T08:22:25;4.60;99.90
15967;DHT22;15175;48.154;11.534;2022-12-05T08:24:52;4.60;99.90
15967;DHT22;15175;48.154;11.534;2022-12-05T08:27:19;4.60;99.90
15967;DHT22;15175;48.154;11.534;2022-12-05T08:29:47;4.70;99.90
15967;DHT22;15175;48.154;11.534;2022-12-05T08:32:14;4.60;99.90
15967;DHT22;15175;48.154;11.534;2022-12-05T08:34:42;4.70;99.90
15967;DHT22;15175;48.154;11.534;2022-12-05T08:37:09;4.70;99.90
15967;DHT22;15175;48.154;11.534;2022-12-05T08:39:36;4.60;99.90
15967;DHT22;15175;48.154;11.534;2022-12-05T08:42:03;4.60;99.90
15967;DHT22;15175;48.154;11.534;2022-12-05T08:44:30;4.60;99.90
15967;DHT22;15175;48.154;11.534;2022-12-05T08:46:58;4.70;99.90
15967;DHT22;15175;48.154;11.534;2022-12-05T08:49:25;4.70;99.90
15967;DHT22;15175;48.154;11.534;2022-12-05T08:51:52;4.70;99.90
15967;DHT22;15175;48.154;11.534;2022-12-05T08:54:20;4.70;99.90
15967;DHT22;15175;48.154;11.534;2022-12-05T08:56:49;4.70;99.90
15967;DHT22;15175;48.154;11.534;2022-12-05T08:59:17;4.70;99.90
15967;DHT22;15175;48.154;11.534;2022-12-05T09:01:44;4.70;99.90
15967;DHT22;15175;48.154;11.534;2022-12-05T09:04:13;4.70;99.90
15967;DHT22;15175;48.154;11.534;2022-12-05T09:06:40;4.70;99.90
15967;DHT22;15175;48.154;11.534;2022-12-05T09:09:09;4.70;99.90
15967;DHT22;15175;48.154;11.534;2022-12-05T09:11:38;4.80;99.90
15967;DHT22;15175;48.154;11.534;2022-12-05T09:14:08;4.80;99.90
15967;DHT22;15175;48.154;11.534;2022-12-05T09:16:37;4.80;99.90
15967;DHT22;15175;48.154;11.534;2022-12-05T09:19:07;4.70;99.90
15967;DHT22;15175;48.154;11.534;2022-12-05T09:21:37;4.80;99.90
15967;DHT22;15175;48.154;11.534;2022-12-05T09:24:04;4.80;99.90
15967;DHT22;15175;48.154;11.534;2022-12-05T09:26:31;4.90;99.90
15967;DHT22;15175;48.154;11.534;2022-12-05T09:29:00;4.90;99.90
15967;DHT22;15175;48.154;11.534;2022-12-05T09:31:27;4.80;99.90
15967;DHT22;15175;48.154;11.534;2022-12-05T09:33:55;4.90;99.90
15967;DHT22;15175;48.154;11.534;2022-12-05T09:36:24;4.80;99.90
15967;DHT22;15175;48.154;11.534;2022-12-05T09:38:54;4.90;99.90
15967;DHT22;15175;48.154;11.534;2022-12-05T09:41:42;4.90;99.90
15967;DHT22;15175;48.154;11.534;2022-12-05T09:44:39;4.90;99.90
15967;DHT22;15175;48.154;11.534;2022-12-05T09:47:14;4.80;99.90
15967;DHT22;15175;48.154;11.534;2022-12-05T09:49:48;4.90;99.90
15967;DHT22;15175;48.154;11.534;2022-12-05T09:52:22;4.90;99.90
15967;DHT22;15175;48.154;11.534;2022-12-05T09:54:52;4.90;99.90
15967;DHT22;15175;48.154;11.534;2022-12-05T09:57:25;4.90;99.90
15967;DHT22;15175;48.154;11.534;2022-12-05T09:59:57;4.90;99.90
15967;DHT22;15175;48.154;11.534;2022-12-05T10:02:31;5.00;99.90
15967;DHT22;15175;48.154;11.534;2022-12-05T10:05:03;4.90;99.90
15967;DHT22;15175;48.154;11.534;2022-12-05T10:07:36;4.90;99.90
15967;DHT22;15175;48.154;11.534;2022-12-05T10:10:28;4.90;99.90
15967;DHT22;15175;48.154;11.534;2022-12-05T10:13:12;4.90;99.90
15967;DHT22;15175;48.154;11.534;2022-12-05T10:15:43;4.80;99.90
15967;DHT22;15175;48.154;11.534;2022-12-05T10:18:23;4.80;99.90
15967;DHT22;15175;48.154;11.534;2022-12-05T10:20:57;4.80;99.90
15967;DHT22;15175;48.154;11.534;2022-12-05T10:23:29;4.80;99.90
15967;DHT22;15175;48.154;11.534;2022-12-05T10:26:02;4.80;99.90
15967;DHT22;15175;48.154;11.534;2022-12-05T10:28:34;4.80;99.90
15967;DHT22;15175;48.154;11.534;2022-12-05T10:31:06;4.90;99.90
15967;DHT22;15175;48.154;11.534;2022-12-05T10:33:37;4.90;99.90
15967;DHT22;15175;48.154;11.534;2022-12-05T10:36:12;4.90;99.90
15967;DHT22;15175;48.154;11.534;2022-12-05T10:38:40;4.90;99.90
15967;DHT22;15175;48.154;11.534;2022-12-05T10:41:12;4.90;99.90
15967;DHT22;15175;48.154;11.534;2022-12-05T10:43:41;4.80;99.90
15967;DHT22;15175;48.154;11.534;2022-12-05T10:46:10;4.90;99.90
15967;DHT22;15175;48.154;11.534;2022-12-05T10:48:39;4.90;99.90
15967;DHT22;15175;48.154;11.534;2022-12-05T10:51:08;5.00;99.90
15967;DHT22;15175;48.154;11.534;2022-12-05T10:53:41;5.00;99.90
15967;DHT22;15175;48.154;11.534;2022-12-05T10:56:38;5.10;99.90
15967;DHT22;15175;48.154;11.534;2022-12-05T10:59:06;5.10;99.90
15967;DHT22;15175;48.154;11.534;2022-12-05T11:01:35;5.20;99.90
15967;DHT22;15175;48.154;11.534;2022-12-05T11:04:08;5.20;99.90
15967;DHT22;15175;48.154;11.534;2022-12-05T11:06:36;5.20;99.90
15967;DHT22;15175;48.154;11.534;2022-12-05T11:09:12;5.20;99.90
15967;DHT22;15175;48.154;11.534;2022-12-05T11:11:41;5.30;99.90
15967;DHT22;15175;48.154;11.534;2022-12-05T11:14:23;5.30;99.90
15967;DHT22;15175;48.154;11.534;2022-12-05T11:16:53;5.20;99.90
15967;DHT22;15175;48.154;11.534;2022-12-05T11:19:27;5.30;99.90
15967;DHT22;15175;48.154;11.534;2022-12-05T11:21:55;5.30;99.90
15967;DHT22;15175;48.154;11.534;2022-12-05T11:24:25;5.30;99.90
15967;DHT22;15175;48.154;11.534;2022-12-05T11:26:55;5.30;99.90
15967;DHT22;15175;48.154;11.534;2022-12-05T11:29:30;5.40;99.90
15967;DHT22;15175;48.154;11.534;2022-12-05T11:31:58;5.50;99.90
15967;DHT22;15175;48.154;11.534;2022-12-05T11:34:28;5.60;99.90
15967;DHT22;15175;48.154;11.534;2022-12-05T11:37:00;5.60;99.90
15967;DHT22;15175;48.154;11.534;2022-12-05T11:39:28;5.60;99.90
15967;DHT22;15175;48.154;11.534;2022-12-05T11:42:15;5.60;99.90
15967;DHT22;15175;48.154;11.534;2022-12-05T11:47:57;5.70;99.90
15967;DHT22;15175;48.154;11.534;2022-12-05T11:50:39;5.70;99.90
15967;DHT22;15175;48.154;11.534;2022-12-05T11:53:34;5.80;99.90
15967;DHT22;15175;48.154;11.534;2022-12-05T11:56:13;5.80;99.90
15967;DHT22;15175;48.154;11.534;2022-12-05T11:58:55;5.80;99.90
15967;DHT22;15175;48.154;11.534;2022-12-05T12:01:32;5.80;99.90
15967;DHT22;15175;48.154;11.534;2022-12-05T12:04:22;5.80;99.90
15967;DHT22;15175;48.154;11.534;2022-12-05T12:07:05;5.80;99.90
15967;DHT22;15175;48.154;11.534;2022-12-05T12:09:44;5.80;99.90
15967;DHT22;15175;48.154;11.534;2022-12-05T12:12:21;5.90;99.90
15967;DHT22;15175;48.154;11.534;2022-12-05T12:14:58;5.90;99.90
15967;DHT22;15175;48.154;11.534;2022-12-05T12:17:32;5.90;99.90
15967;DHT22;15175;48.154;11.534;2022-12-05T12:20:26;5.90;99.90
15967;DHT22;15175;48.154;11.534;2022-12-05T12:23:12;5.90;99.90
15967;DHT22;15175;48.154;11.534;2022-12-05T12:26:05;5.90;99.90
15967;DHT22;15175;48.154;11.534;2022-12-05T12:28:40;5.90;99.90
15967;DHT22;15175;48.154;11.534;2022-12-05T12:31:30;5.90;99.90
15967;DHT22;15175;48.154;11.534;2022-12-05T12:34:09;5.90;99.90
15967;DHT22;15175;48.154;11.534;2022-12-05T12:36:44;5.90;99.90
15967;DHT22;15175;48.154;11.534;2022-12-05T12:39:22;5.90;99.90
15967;DHT22;15175;48.154;11.534;2022-12-05T12:42:13;5.90;99.90
15967;DHT22;15175;48.154;11.534;2022-12-05T12:45:20;6.00;99.90
15967;DHT22;15175;48.154;11.534;2022-12-05T12:48:04;6.00;99.90
15967;DHT22;15175;48.154;11.534;2022-12-05T12:50:34;6.00;99.90
15967;DHT22;15175;48.154;11.534;2022-12-05T12:56:00;6.00;99.90
15967;DHT22;15175;48.154;11.534;2022-12-05T12:58:42;6.00;99.90
15967;DHT22;15175;48.154;11.534;2022-12-05T13:01:16;6.00;99.90
15967;DHT22;15175;48.154;11.534;2022-12-05T13:03:52;6.00;99.90
15967;DHT22;15175;48.154;11.534;2022-12-05T13:06:24;5.90;99.90
15967;DHT22;15175;48.154;11.534;2022-12-05T13:08:56;5.90;99.90
15967;DHT22;15175;48.154;11.534;2022-12-05T13:11:28;5.90;99.90
15967;DHT22;15175;48.154;11.534;2022-12-05T13:13:57;5.90;99.90
15967;DHT22;15175;48.154;11.534;2022-12-05T13:16:29;5.90;99.90
15967;DHT22;15175;48.154;11.534;2022-12-05T13:18:59;5.90;99.90
15967;DHT22;15175;48.154;11.534;2022-12-05T13:21:27;5.90;99.90
15967;DHT22;15175;48.154;11.534;2022-12-05T13:23:56;5.90;99.90
15967;DHT22;15175;48.154;11.534;2022-12-05T13:26:28;5.90;99.90
15967;DHT22;15175;48.154;11.534;2022-12-05T13:28:58;5.90;99.90
15967;DHT22;15175;48.154;11.534;2022-12-05T13:31:36;5.90;99.90
15967;DHT22;15175;48.154;11.534;2022-12-05T13:34:05;5.90;99.90
15967;DHT22;15175;48.154;11.534;2022-12-05T13:36:53;5.90;99.90
15967;DHT22;15175;48.154;11.534;2022-12-05T13:39:38;5.80;99.90
15967;DHT22;15175;48.154;11.534;2022-12-05T13:42:25;5.80;99.90
15967;DHT22;15175;48.154;11.534;2022-12-05T13:44:57;5.80;99.90
15967;DHT22;15175;48.154;11.534;2022-12-05T13:47:31;5.80;99.90
15967;DHT22;15175;48.154;11.534;2022-12-05T13:50:12;5.80;99.90
15967;DHT22;15175;48.154;11.534;2022-12-05T13:52:45;5.80;99.90
15967;DHT22;15175;48.154;11.534;2022-12-05T13:55:21;5.80;99.90
15967;DHT22;15175;48.154;11.534;2022-12-05T13:57:52;5.70;99.90
15967;DHT22;15175;48.154;11.534;2022-12-05T14:00:34;5.70;99.90
15967;DHT22;15175;48.154;11.534;2022-12-05T14:03:14;5.70;99.90
15967;DHT22;15175;48.154;11.534;2022-12-05T14:05:53;5.60;99.90
15967;DHT22;15175;48.154;11.534;2022-12-05T14:08:51;5.60;99.90
15967;DHT22;15175;48.154;11.534;2022-12-05T14:11:19;5.60;99.90
15967;DHT22;15175;48.154;11.534;2022-12-05T14:13:47;5.60;99.90
15967;DHT22;15175;48.154;11.534;2022-12-05T14:22:02;5.70;99.90
15967;DHT22;15175;48.154;11.534;2022-12-05T14:24:37;5.70;99.90
15967;DHT22;15175;48.154;11.534;2022-12-05T14:27:15;5.70;99.90
15967;DHT22;15175;48.154;11.534;2022-12-05T14:29:55;5.70;99.90
15967;DHT22;15175;48.154;11.534;2022-12-05T14:32:29;5.70;99.90
15967;DHT22;15175;48.154;11.534;2022-12-05T14:35:02;5.70;99.90
15967;DHT22;15175;48.154;11.534;2022-12-05T14:37:33;5.70;99.90
15967;DHT22;15175;48.154;11.534;2022-12-05T14:40:02;5.70;99.90
15967;DHT22;15175;48.154;11.534;2022-12-05T14:42:36;5.70;99.90
15967;DHT22;15175;48.154;11.534;2022-12-05T14:45:22;5.70;99.90
15967;DHT22;15175;48.154;11.534;2022-12-05T14:47:52;5.60;99.90
15967;DHT22;15175;48.154;11.534;2022-12-05T14:50:41;5.60;99.90
15967;DHT22;15175;48.154;11.534;2022-12-05T14:53:29;5.60;99.90
15967;DHT22;15175;48.154;11.534;2022-12-05T14:56:12;5.60;99.90
15967;DHT22;15175;48.154;11.534;2022-12-05T14:58:44;5.60;99.90
15967;DHT22;15175;48.154;11.534;2022-12-05T15:01:15;5.70;99.90
15967;DHT22;15175;48.154;11.534;2022-12-05T15:04:14;5.60;99.90
15967;DHT22;15175;48.154;11.534;2022-12-05T15:06:46;5.70;99.90
15967;DHT22;15175;48.154;11.534;2022-12-05T15:09:30;5.70;99.90
15967;DHT22;15175;48.154;11.534;2022-12-05T15:12:00;5.70;99.90
15967;DHT22;15175;48.154;11.534;2022-12-05T15:14:32;5.70;99.90
15967;DHT22;15175;48.154;11.534;2022-12-05T15:17:02;5.60;99.90
15967;DHT22;15175;48.154;11.534;2022-12-05T15:19:32;5.60;99.90
15967;DHT22;15175;48.154;11.534;2022-12-05T15:22:05;5.60;99.90
15967;DHT22;15175;48.154;11.534;2022-12-05T15:24:37;5.50;99.90
15967;DHT22;15175;48.154;11.534;2022-12-05T15:27:07;5.50;99.90
15967;DHT22;15175;48.154;11.534;2022-12-05T15:29:36;5.50;99.90
15967;DHT22;15175;48.154;11.534;2022-12-05T15:32:14;5.50;99.90
15967;DHT22;15175;48.154;11.534;2022-12-05T15:34:45;5.50;99.90
15967;DHT22;15175;48.154;11.534;2022-12-05T15:37:17;5.50;99.90
15967;DHT22;15175;48.154;11.534;2022-12-05T15:39:52;5.50;99.90
15967;DHT22;15175;48.154;11.534;2022-12-05T15:42:21;5.50;99.90
15967;DHT22;15175;48.154;11.534;2022-12-05T15:44:48;5.50;99.90
15967;DHT22;15175;48.154;11.534;2022-12-05T15:47:20;5.50;99.90
15967;DHT22;15175;48.154;11.534;2022-12-05T15:49:48;5.40;99.90
15967;DHT22;15175;48.154;11.534;2022-12-05T15:52:23;5.40;99.90
15967;DHT22;15175;48.154;11.534;2022-12-05T15:54:53;5.40;99.90
15967;DHT22;15175;48.154;11.534;2022-12-05T15:57:24;5.50;99.90
15967;DHT22;15175;48.154;11.534;2022-12-05T15:59:55;5.50;99.90
15967;DHT22;15175;48.154;11.534;2022-12-05T16:02:39;5.50;99.90
15967;DHT22;15175;48.154;11.534;2022-12-05T16:05:21;5.50;99.90
15967;DHT22;15175;48.154;11.534;2022-12-05T16:07:50;5.50;99.90
15967;DHT22;15175;48.154;11.534;2022-12-05T16:10:20;5.50;99.90
15967;DHT22;15175;48.154;11.534;2022-12-05T16:12:48;5.50;99.90
15967;DHT22;15175;48.154;11.534;2022-12-05T16:15:20;5.50;99.90
15967;DHT22;15175;48.154;11.534;2022-12-05T16:17:52;5.50;99.90